METAR Data
IDs: Format: Raw Decoded Include TAF

Data at: 0222 UTC 24 Oct 2019

METAR for:KFPK (Charotte/Beach Fld, MI, US)
Text:KFPK 240215Z AUTO 00000KT 10SM OVC060 09/06 A2997 RMK AO2 T00900056
Temperature: 9.0°C ( 48°F)
Dewpoint: 5.6°C ( 42°F) [RH = 79%]
Pressure (altimeter):29.97 inches Hg (1015.0 mb)
Winds:calm
Visibility:10 or more sm (16+ km)
Ceiling:6000 feet AGL
Clouds: overcast cloud deck at 6000 feet AGL
QC Flag:automated observation with no human augmentation

TAF for:KFPK (Charotte/Beach Fld, MI, US)
Text:No data found

METAR for:KLAN (Lansing/Capital City, MI, US)
Text:KLAN 240153Z 00000KT 10SM BKN070 OVC085 08/03 A2999 RMK AO2 SLP158 T00830033
Temperature: 8.3°C ( 47°F)
Dewpoint: 3.3°C ( 38°F) [RH = 71%]
Pressure (altimeter):29.99 inches Hg (1015.7 mb) [Sea level pressure: 1015.8 mb]
Winds:calm
Visibility:10 or more sm (16+ km)
Ceiling:7000 feet AGL
Clouds: broken clouds at 7000 feet AGL, overcast cloud deck at 8500 feet AGL

TAF for:KLAN (Lansing/Capital City, MI, US) issued at 2341 UTC 23 Oct 2019
Text:KLAN 232341Z 2400/2424 21006KT P6SM BKN120
Forecast period:0000 to 0800 UTC 24 October 2019
Forecast type:FROM: standard forecast or significant change
Winds:from the SSW (210 degrees) at 7 MPH (6 knots; 3.1 m/s)
Visibility:6 or more sm (10+ km)
Ceiling:12000 feet AGL
Clouds: broken clouds at 12000 feet AGL
Text:FM240800 24012KT P6SM VCSH BKN040
Forecast period:0800 to 1500 UTC 24 October 2019
Forecast type:FROM: standard forecast or significant change
Winds:from the WSW (240 degrees) at 14 MPH (12 knots; 6.2 m/s)
Visibility:6 or more sm (10+ km)
Ceiling:4000 feet AGL
Clouds: broken clouds at 4000 feet AGL
Weather:VCSH (showers in vicinity)
Text:FM241500 29010KT P6SM BKN025
Forecast period:1500 to 2300 UTC 24 October 2019
Forecast type:FROM: standard forecast or significant change
Winds:from the WNW (290 degrees) at 12 MPH (10 knots; 5.1 m/s)
Visibility:6 or more sm (10+ km)
Ceiling:2500 feet AGL
Clouds: broken clouds at 2500 feet AGL
Text:FM242300 28006KT P6SM SCT070
Forecast period:2300 UTC 24 October 2019 to 0000 UTC 25 October 2019
Forecast type:FROM: standard forecast or significant change
Winds:from the W (280 degrees) at 7 MPH (6 knots; 3.1 m/s)
Visibility:6 or more sm (10+ km)
Ceiling:at least 12,000 feet AGL
Clouds: scattered clouds at 7000 feet AGL